Time;durP1;ratioP1;P1;durP2;ratioP2;P2;SDS_P1;SDS_P2;PMS_P1;PMS_P2;Temp;Humidity;BMP_temperature;BMP_pressure;BME280_temperature;BME280_humidity;BME280_pressure;Samples;Min_cycle;Max_cycle;Signal;HPM_P1;HPM_P2
2021/05/16 09:23:23;;;;;;;;;;;30.60;81.10;;;;;;1847585;75;20230;-88
2021/05/16 09:26:04;;;;;;;;;;;30.20;83.40;;;;;;1849791;76;20169;-89
2021/05/16 09:28:34;;;;;;;;;;;;;;;;;;1817642;78;20207;-91
2021/05/16 09:31:06;;;;;;;;;;;29.10;88.80;;;;;;1825851;78;20229;-90
2021/05/16 09:33:35;;;;;;;;;;;28.70;91.40;;;;;;1899942;74;20273;-89
2021/05/16 09:36:08;;;;;;;;;;;28.50;92.10;;;;;;1898855;74;20204;-89
2021/05/16 09:38:38;;;;;;;;;;;28.40;93.00;;;;;;1897971;74;20522;-88
2021/05/16 09:41:14;;;;;;;;;;;28.50;92.80;;;;;;1899548;74;20181;-87
2021/05/16 09:43:45;;;;;;;;;;;28.50;92.60;;;;;;1897400;74;20241;-90
2021/05/16 09:46:15;;;;;;;;;;;28.60;92.60;;;;;;1896693;74;20256;-89
2021/05/16 09:48:47;;;;;;;;;;;28.60;92.30;;;;;;1897633;74;20263;-92
2021/05/16 09:51:21;;;;;;;;;;;28.70;92.30;;;;;;1898475;74;20268;-93
2021/05/16 09:53:55;;;;;;;;;;;28.80;90.80;;;;;;1898991;74;20224;-89
2021/05/16 09:56:26;;;;;;;;;;;28.80;90.30;;;;;;1897338;74;20306;-92
2021/05/16 09:58:57;;;;;;;;;;;28.90;91.30;;;;;;1894948;75;20175;-90
2021/05/16 10:01:27;;;;;;;;;;;29.00;91.40;;;;;;1888659;75;20464;-89
2021/05/16 10:03:58;;;;;;;;;;;29.00;91.30;;;;;;1896435;75;20169;-91
2021/05/16 10:06:29;;;;;;;;;;;29.00;91.00;;;;;;1894275;75;20334;-90
2021/05/16 10:09:02;;;;;;;;;;;29.00;90.80;;;;;;1900569;75;20224;-91
2021/05/16 10:11:45;;;;;;;;;;;29.00;90.00;;;;;;1893636;74;20200;-92
2021/05/16 10:14:13;;;;;;;;;;;29.10;89.10;;;;;;1893786;75;20233;-90
2021/05/16 10:16:42;;;;;;;;;;;29.20;88.70;;;;;;1897160;75;20131;-91
2021/05/16 10:19:13;;;;;;;;;;;29.30;89.80;;;;;;1888467;75;20151;-90
2021/05/16 10:21:53;;;;;;;;;;;29.50;89.90;;;;;;1899791;74;20186;-92
2021/05/16 10:24:25;;;;;;;;;;;29.60;90.20;;;;;;1900143;75;20214;-92
2021/05/16 10:26:56;;;;;;;;;;;29.60;90.20;;;;;;1895235;74;20185;-91
2021/05/16 10:29:27;;;;;;;;;;;29.60;89.40;;;;;;1885559;75;20177;-91
2021/05/16 10:31:57;;;;;;;;;;;29.50;90.50;;;;;;1896494;75;20131;-90
2021/05/16 10:34:28;;;;;;;;;;;29.50;88.80;;;;;;1890829;75;20198;-91
2021/05/16 10:36:59;;;;;;;;;;;29.50;89.70;;;;;;1892524;75;20193;-90
2021/05/16 10:39:31;;;;;;;;;;;29.50;90.10;;;;;;1895429;75;20158;-91
2021/05/16 10:42:01;;;;;;;;;;;29.50;89.60;;;;;;1898780;75;20552;-90
2021/05/16 10:44:32;;;;;;;;;;;29.40;89.80;;;;;;1887962;74;20155;-89
2021/05/16 10:47:02;;;;;;;;;;;29.30;88.50;;;;;;1899901;75;20209;-90
2021/05/16 10:49:33;;;;;;;;;;;29.30;89.40;;;;;;1897225;75;20515;-91
2021/05/16 10:52:04;;;;;;;;;;;29.40;90.40;;;;;;1894402;75;20202;-89
2021/05/16 10:54:35;;;;;;;;;;;29.40;90.70;;;;;;1894831;74;20225;-90
2021/05/16 10:57:06;;;;;;;;;;;29.40;90.20;;;;;;1904452;75;20519;-91
2021/05/16 10:59:37;;;;;;;;;;;29.40;90.20;;;;;;1890209;75;20280;-90
2021/05/16 11:02:09;;;;;;;;;;;29.30;90.60;;;;;;1896235;74;20194;-90
2021/05/16 11:04:41;;;;;;;;;;;29.30;90.70;;;;;;1901631;74;20190;-90
2021/05/16 11:07:11;;;;;;;;;;;29.20;90.70;;;;;;1888853;75;20226;-91
2021/05/16 11:09:40;;;;;;;;;;;29.20;91.10;;;;;;1895226;75;20253;-90
2021/05/16 11:12:10;;;;;;;;;;;29.20;90.70;;;;;;1896150;75;20194;-90
2021/05/16 11:14:41;;;;;;;;;;;29.10;90.90;;;;;;1898490;75;20247;-89
2021/05/16 11:17:15;;;;;;;;;;;29.10;91.10;;;;;;1897106;75;20116;-86
2021/05/16 11:19:43;;;;;;;;;;;29.00;91.40;;;;;;1892580;75;20184;-83
2021/05/16 11:22:13;;;;;;;;;;;29.00;91.40;;;;;;1896293;75;20213;-84
2021/05/16 11:24:46;;;;;;;;;;;28.90;91.90;;;;;;1897568;75;20245;-84
2021/05/16 11:27:18;;;;;;;;;;;28.90;91.40;;;;;;1896594;75;20253;-84
2021/05/16 11:29:49;;;;;;;;;;;29.00;91.20;;;;;;1892148;75;20213;-82
2021/05/16 11:32:22;;;;;;;;;;;29.00;91.00;;;;;;1900062;75;20633;-83
2021/05/16 11:34:53;;;;;;;;;;;29.10;92.00;;;;;;1893992;75;20213;-83
2021/05/16 11:37:23;;;;;;;;;;;29.10;92.50;;;;;;1896987;75;20128;-83
2021/05/16 11:39:51;;;;;;;;;;;29.00;92.40;;;;;;1900865;75;20229;-82
2021/05/16 11:42:25;;;;;;;;;;;29.00;92.60;;;;;;1896118;75;20265;-85
2021/05/16 11:44:56;;;;;;;;;;;29.00;92.20;;;;;;1901451;75;20120;-84
2021/05/16 11:47:30;;;;;;;;;;;29.00;91.80;;;;;;1902605;75;20210;-85
2021/05/16 11:50:00;;;;;;;;;;;28.90;91.80;;;;;;1894468;75;20183;-84
2021/05/16 11:52:37;;;;;;;;;;;28.90;92.30;;;;;;1890993;75;20176;-83
2021/05/16 11:55:11;;;;;;;;;;;28.90;92.90;;;;;;1892324;75;20226;-82
2021/05/16 11:57:42;;;;;;;;;;;28.90;92.90;;;;;;1900165;75;20228;-86
2021/05/16 12:00:14;;;;;;;;;;;28.90;92.80;;;;;;1897413;75;20256;-84
2021/05/16 12:02:45;;;;;;;;;;;28.90;92.50;;;;;;1900182;75;20223;-84
2021/05/16 12:05:20;;;;;;;;;;;28.90;92.60;;;;;;1899664;74;20143;-85
2021/05/16 12:07:50;;;;;;;;;;;28.80;92.80;;;;;;1887808;75;20312;-85
2021/05/16 12:10:20;;;;;;;;;;;28.80;92.80;;;;;;1874504;75;20121;-84
2021/05/16 12:12:50;;;;;;;;;;;28.80;92.70;;;;;;1884883;76;20121;-85
2021/05/16 12:15:22;;;;;;;;;;;28.70;92.70;;;;;;1891371;75;20209;-89
2021/05/16 12:17:51;;;;;;;;;;;28.70;92.90;;;;;;1901716;75;20245;-90
2021/05/16 12:20:27;;;;;;;;;;;28.70;92.80;;;;;;1902022;75;20187;-89
2021/05/16 12:22:59;;;;;;;;;;;28.70;92.60;;;;;;1902354;75;20175;-91
2021/05/16 12:25:30;;;;;;;;;;;28.70;92.40;;;;;;1902344;75;20184;-90
2021/05/16 12:28:04;;;;;;;;;;;28.70;92.50;;;;;;1902288;75;20226;-91
2021/05/16 12:30:34;;;;;;;;;;;28.80;92.70;;;;;;1891477;75;20246;-90
2021/05/16 12:33:08;;;;;;;;;;;28.80;92.40;;;;;;1902341;75;20139;-91
2021/05/16 12:35:40;;;;;;;;;;;28.90;92.60;;;;;;1897335;75;20132;-91
2021/05/16 12:38:10;;;;;;;;;;;28.90;92.60;;;;;;1853166;75;20273;-91
2021/05/16 12:40:42;;;;;;;;;;;28.90;92.80;;;;;;1879798;76;20188;-92
2021/05/16 12:43:18;;;;;;;;;;;28.90;92.90;;;;;;1868245;76;20796;-92
2021/05/16 12:45:45;;;;;;;;;;;28.90;93.30;;;;;;1901060;75;20234;-91
2021/05/16 12:48:17;;;;;;;;;;;28.80;93.00;;;;;;1888693;75;20231;-90
2021/05/16 12:50:48;;;;;;;;;;;28.80;92.60;;;;;;1895151;75;20676;-91
2021/05/16 12:53:20;;;;;;;;;;;28.70;92.70;;;;;;1901908;75;20485;-89
2021/05/16 12:55:52;;;;;;;;;;;28.60;92.50;;;;;;1900376;75;20226;-91
2021/05/16 12:58:28;;;;;;;;;;;28.60;92.70;;;;;;1884320;76;20116;-91
2021/05/16 13:00:56;;;;;;;;;;;28.50;93.00;;;;;;1900244;75;20139;-91
2021/05/16 13:03:28;;;;;;;;;;;28.50;93.10;;;;;;1902248;75;20128;-90
2021/05/16 13:05:59;;;;;;;;;;;28.40;93.10;;;;;;1898813;75;20143;-91
2021/05/16 13:08:35;;;;;;;;;;;28.40;93.00;;;;;;1897766;75;20193;-93
2021/05/16 13:11:02;;;;;;;;;;;28.30;93.00;;;;;;1885976;75;20122;-91
2021/05/16 13:13:43;;;;;;;;;;;28.30;93.10;;;;;;1884682;75;20128;-91
2021/05/16 13:16:07;;;;;;;;;;;28.30;93.20;;;;;;1894639;75;20249;-91
2021/05/16 13:18:41;;;;;;;;;;;28.30;92.40;;;;;;1893463;75;20175;-91
2021/05/16 13:21:12;;;;;;;;;;;28.30;92.40;;;;;;1888271;75;20447;-91
2021/05/16 13:23:47;;;;;;;;;;;28.30;92.30;;;;;;1897470;74;20223;-91
2021/05/16 13:26:30;;;;;;;;;;;28.30;92.20;;;;;;1895697;74;20412;-91
2021/05/16 13:29:10;;;;;;;;;;;28.30;92.20;;;;;;1866580;75;20282;-90
2021/05/16 13:31:34;;;;;;;;;;;28.40;92.40;;;;;;1896531;74;20280;-92
2021/05/16 13:34:06;;;;;;;;;;;28.40;92.10;;;;;;1894254;74;20152;-91
2021/05/16 13:36:35;;;;;;;;;;;28.40;92.00;;;;;;1899285;74;20151;-91
2021/05/16 13:39:09;;;;;;;;;;;28.50;92.10;;;;;;1891725;73;20081;-91
2021/05/16 13:41:38;;;;;;;;;;;28.50;92.00;;;;;;1796897;79;20214;-91
2021/05/16 13:44:08;;;;;;;;;;;28.50;91.90;;;;;;1761014;80;20209;-91
2021/05/16 13:46:38;;;;;;;;;;;28.50;91.90;;;;;;1810298;78;20249;-91
2021/05/16 13:49:09;;;;;;;;;;;28.50;91.90;;;;;;1809602;78;20515;-91
2021/05/16 13:51:49;;;;;;;;;;;28.40;91.80;;;;;;1810909;78;20331;-91
2021/05/16 13:54:20;;;;;;;;;;;28.40;92.10;;;;;;1810947;79;20140;-91
2021/05/16 13:56:51;;;;;;;;;;;28.30;92.10;;;;;;1812837;77;20176;-90
2021/05/16 13:59:21;;;;;;;;;;;28.30;91.90;;;;;;1819934;78;20211;-90
2021/05/16 14:01:52;;;;;;;;;;;28.20;91.70;;;;;;1814265;78;20225;-92
2021/05/16 14:04:22;;;;;;;;;;;28.20;92.10;;;;;;1837352;78;20215;-91
2021/05/16 14:06:52;;;;;;;;;;;28.20;92.10;;;;;;1795644;78;20219;-92
2021/05/16 14:09:26;;;;;;;;;;;28.30;92.10;;;;;;1810774;78;20180;-91
2021/05/16 14:11:59;;;;;;;;;;;28.30;92.00;;;;;;1805358;78;20168;-90
2021/05/16 14:14:29;;;;;;;;;;;28.40;91.80;;;;;;1803871;79;20839;-92
2021/05/16 14:17:03;;;;;;;;;;;28.40;91.90;;;;;;1806177;78;20207;-91
2021/05/16 14:19:34;;;;;;;;;;;28.40;91.70;;;;;;1798024;78;20300;-91
2021/05/16 14:22:03;;;;;;;;;;;28.50;91.70;;;;;;1836149;78;20345;-92
2021/05/16 14:24:33;;;;;;;;;;;28.50;91.80;;;;;;1811959;78;20184;-91
2021/05/16 14:27:03;;;;;;;;;;;28.50;91.60;;;;;;1807449;79;20251;-90
2021/05/16 14:29:34;;;;;;;;;;;28.50;91.70;;;;;;1788576;78;20192;-89
2021/05/16 14:32:13;;;;;;;;;;;28.40;91.60;;;;;;1786273;80;20549;-90
2021/05/16 14:34:46;;;;;;;;;;;28.40;91.60;;;;;;1780617;79;20192;-91
2021/05/16 14:37:17;;;;;;;;;;;28.40;91.60;;;;;;1777732;79;20168;-90
2021/05/16 14:39:47;;;;;;;;;;;28.40;91.30;;;;;;1771311;80;20430;-90
2021/05/16 14:42:16;;;;;;;;;;;28.30;91.40;;;;;;1780633;80;20297;-89
2021/05/16 14:44:49;;;;;;;;;;;28.30;91.40;;;;;;1785745;80;20214;-91
2021/05/16 14:47:18;;;;;;;;;;;28.30;91.50;;;;;;1783679;80;20196;-90
2021/05/16 14:49:51;;;;;;;;;;;28.30;91.30;;;;;;1782806;80;20467;-91
2021/05/16 14:52:22;;;;;;;;;;;28.20;91.30;;;;;;1772545;78;20229;-90
2021/05/16 14:54:54;;;;;;;;;;;28.20;91.50;;;;;;1779537;79;20241;-90
2021/05/16 14:57:39;;;;;;;;;;;;;;;;;;;;;
2021/05/16 15:00:06;;;;;;;;;;;28.20;91.70;;;;;;1784083;79;20295;-90
2021/05/16 15:02:35;;;;;;;;;;;28.20;91.80;;;;;;1786660;79;20208;-90
2021/05/16 15:05:05;;;;;;;;;;;28.20;91.80;;;;;;1779274;79;20192;-90
2021/05/16 15:07:36;;;;;;;;;;;28.20;91.60;;;;;;1811516;78;20318;-90
2021/05/16 15:10:15;;;;;;;;;;;28.20;91.70;;;;;;1787892;79;20255;-89
2021/05/16 15:12:56;;;;;;;;;;;28.20;91.70;;;;;;1790502;79;20568;-91
2021/05/16 15:15:28;;;;;;;;;;;28.20;91.70;;;;;;1783306;79;20214;-92
2021/05/16 15:17:59;;;;;;;;;;;28.20;91.60;;;;;;1794558;79;20482;-92
2021/05/16 15:20:41;;;;;;;;;;;;;;;;;;;;;
2021/05/16 15:23:20;;;;;;;;;;;28.20;91.50;;;;;;1758440;80;20235;-90
2021/05/16 15:25:50;;;;;;;;;;;28.30;91.60;;;;;;1815305;79;20207;-90
2021/05/16 15:28:20;;;;;;;;;;;28.30;91.50;;;;;;1775979;79;20267;-91
2021/05/16 15:30:53;;;;;;;;;;;28.30;91.50;;;;;;1799343;78;20219;-90
2021/05/16 15:33:23;;;;;;;;;;;28.40;91.50;;;;;;1786878;78;20233;-90
2021/05/16 15:35:53;;;;;;;;;;;28.40;91.60;;;;;;1777519;79;20552;-92
2021/05/16 15:38:23;;;;;;;;;;;28.40;91.50;;;;;;1781804;79;20204;-92
2021/05/16 15:40:54;;;;;;;;;;;28.40;91.80;;;;;;1784481;80;20224;-91
2021/05/16 15:43:25;;;;;;;;;;;28.40;92.00;;;;;;1721774;82;20181;-90
2021/05/16 15:45:55;;;;;;;;;;;28.40;92.10;;;;;;1781832;79;20212;-91
2021/05/16 15:48:25;;;;;;;;;;;28.30;92.20;;;;;;1794038;78;20311;-93
2021/05/16 15:50:56;;;;;;;;;;;28.20;92.10;;;;;;1794120;79;20188;-90
2021/05/16 15:53:27;;;;;;;;;;;28.20;92.50;;;;;;1800210;79;20180;-91
2021/05/16 15:55:57;;;;;;;;;;;28.10;92.20;;;;;;1790061;79;20252;-90
2021/05/16 15:58:30;;;;;;;;;;;28.10;92.40;;;;;;1790656;80;20221;-90
2021/05/16 16:01:01;;;;;;;;;;;28.00;92.30;;;;;;1805322;78;20566;-90
2021/05/16 16:03:31;;;;;;;;;;;28.00;92.80;;;;;;1810076;78;20514;-90
2021/05/16 16:06:00;;;;;;;;;;;28.00;93.10;;;;;;1798262;79;20133;-90
2021/05/16 16:08:45;;;;;;;;;;;28.00;93.00;;;;;;1799949;78;20256;-90
2021/05/16 16:11:44;;;;;;;;;;;28.00;92.90;;;;;;1734951;78;20152;-91
2021/05/16 16:14:14;;;;;;;;;;;28.00;92.60;;;;;;1779372;80;20232;-90
2021/05/16 16:16:44;;;;;;;;;;;28.00;92.80;;;;;;1783782;79;20180;-90
2021/05/16 16:19:14;;;;;;;;;;;28.10;93.00;;;;;;1760215;80;20614;-92
2021/05/16 16:21:46;;;;;;;;;;;28.10;93.40;;;;;;1789160;79;20139;-93
2021/05/16 16:24:15;;;;;;;;;;;28.00;93.20;;;;;;1796789;79;20192;-92
2021/05/16 16:26:46;;;;;;;;;;;27.90;93.40;;;;;;1720139;82;20514;-93
2021/05/16 16:29:16;;;;;;;;;;;27.90;93.70;;;;;;1747783;80;20217;-91
2021/05/16 16:31:46;;;;;;;;;;;27.80;93.50;;;;;;1746531;80;20193;-91
2021/05/16 16:34:17;;;;;;;;;;;27.80;93.50;;;;;;1762863;79;20288;-91
2021/05/16 16:36:47;;;;;;;;;;;27.80;93.50;;;;;;1796272;78;20267;-91
2021/05/16 16:39:17;;;;;;;;;;;27.70;93.50;;;;;;1788019;78;20256;-92
2021/05/16 16:41:49;;;;;;;;;;;27.70;93.60;;;;;;1789005;78;20222;-91
2021/05/16 16:44:18;;;;;;;;;;;27.70;93.70;;;;;;1762431;80;20159;-92
2021/05/16 16:46:48;;;;;;;;;;;27.70;93.70;;;;;;1734155;81;20460;-92
2021/05/16 16:49:18;;;;;;;;;;;27.70;93.60;;;;;;1794189;78;20458;-92
2021/05/16 16:51:48;;;;;;;;;;;27.60;93.80;;;;;;1790384;79;20527;-92
2021/05/16 16:54:18;;;;;;;;;;;27.60;93.80;;;;;;1782384;78;20220;-91
2021/05/16 16:56:48;;;;;;;;;;;27.60;93.90;;;;;;1795647;78;20564;-91
2021/05/16 16:59:17;;;;;;;;;;;27.60;93.70;;;;;;1794183;78;20235;-91
2021/05/16 17:01:47;;;;;;;;;;;27.70;93.40;;;;;;1795982;78;20260;-93
2021/05/16 17:04:17;;;;;;;;;;;27.80;93.80;;;;;;1794796;78;20188;-92
2021/05/16 17:06:47;;;;;;;;;;;27.80;93.70;;;;;;1793313;78;20255;-92
2021/05/16 17:09:17;;;;;;;;;;;27.80;93.60;;;;;;1792381;78;20505;-92
2021/05/16 17:11:47;;;;;;;;;;;27.80;93.50;;;;;;1795500;78;20162;-90
2021/05/16 17:14:16;;;;;;;;;;;27.80;93.60;;;;;;1795335;78;20244;-91
2021/05/16 17:16:46;;;;;;;;;;;27.80;93.80;;;;;;1795098;78;20190;-91
2021/05/16 17:19:17;;;;;;;;;;;27.70;93.80;;;;;;1795597;78;20263;-94
2021/05/16 17:21:46;;;;;;;;;;;27.70;93.70;;;;;;1796039;78;20172;-91
2021/05/16 17:24:16;;;;;;;;;;;27.70;93.60;;;;;;1796427;78;20218;-90
2021/05/16 17:26:46;;;;;;;;;;;27.80;93.60;;;;;;1796676;80;20192;-90
2021/05/16 17:29:20;;;;;;;;;;;27.80;93.50;;;;;;1795223;78;20200;-91
2021/05/16 17:31:47;;;;;;;;;;;27.80;93.60;;;;;;1798837;78;20241;-91
2021/05/16 17:34:17;;;;;;;;;;;27.70;93.60;;;;;;1796893;80;20587;-91
2021/05/16 17:36:47;;;;;;;;;;;27.60;93.80;;;;;;1795380;78;20163;-89
2021/05/16 17:39:17;;;;;;;;;;;27.60;93.90;;;;;;1794358;78;20231;-91
2021/05/16 17:41:46;;;;;;;;;;;27.60;94.20;;;;;;1795267;78;20225;-91
2021/05/16 17:44:16;;;;;;;;;;;27.60;94.10;;;;;;1794723;78;20483;-90
2021/05/16 17:46:47;;;;;;;;;;;27.60;94.30;;;;;;1792397;78;20189;-90
2021/05/16 17:49:18;;;;;;;;;;;27.60;94.20;;;;;;1794190;78;20167;-93
2021/05/16 17:51:48;;;;;;;;;;;27.60;94.10;;;;;;1795403;78;20271;-92
2021/05/16 17:54:18;;;;;;;;;;;27.60;94.30;;;;;;1725273;81;20180;-92
2021/05/16 17:56:49;;;;;;;;;;;27.60;94.30;;;;;;1790812;78;20272;-91
2021/05/16 17:59:19;;;;;;;;;;;27.60;94.30;;;;;;1798028;78;20505;-92
2021/05/16 18:01:49;;;;;;;;;;;27.50;94.40;;;;;;1795174;78;20606;-91
2021/05/16 18:04:20;;;;;;;;;;;27.60;94.50;;;;;;1786880;78;20213;-92
2021/05/16 18:06:52;;;;;;;;;;;27.60;94.60;;;;;;1789065;78;20259;-90
2021/05/16 18:09:22;;;;;;;;;;;27.50;94.80;;;;;;1790181;79;20239;-91
2021/05/16 18:11:52;;;;;;;;;;;27.50;94.90;;;;;;1791548;78;20239;-93
2021/05/16 18:14:22;;;;;;;;;;;27.50;94.90;;;;;;1797456;78;20145;-92
2021/05/16 18:16:54;;;;;;;;;;;27.50;95.00;;;;;;1785068;78;20245;-91
2021/05/16 18:19:29;;;;;;;;;;;27.50;95.00;;;;;;1793441;78;20494;-92
2021/05/16 18:21:59;;;;;;;;;;;27.50;94.90;;;;;;1793265;79;20198;-93
2021/05/16 18:24:28;;;;;;;;;;;27.50;94.90;;;;;;1787171;79;20212;-91
2021/05/16 18:27:01;;;;;;;;;;;27.50;94.90;;;;;;1793942;78;20260;-91
2021/05/16 18:29:32;;;;;;;;;;;27.60;95.10;;;;;;1786016;79;20248;-91
2021/05/16 18:32:01;;;;;;;;;;;27.50;95.00;;;;;;1801233;78;20216;-91
2021/05/16 18:34:31;;;;;;;;;;;27.50;95.00;;;;;;1789189;79;20259;-92
2021/05/16 18:37:02;;;;;;;;;;;27.50;95.10;;;;;;1790694;78;20247;-92
2021/05/16 18:39:33;;;;;;;;;;;27.50;95.30;;;;;;1796788;78;20208;-92
2021/05/16 18:42:04;;;;;;;;;;;27.60;95.30;;;;;;1794242;78;20202;-91
2021/05/16 18:44:45;;;;;;;;;;;27.60;95.30;;;;;;1776911;79;20860;-92
2021/05/16 18:47:11;;;;;;;;;;;27.50;95.40;;;;;;1759914;80;20365;-93
2021/05/16 18:49:41;;;;;;;;;;;27.50;95.50;;;;;;1751723;80;20496;-91
2021/05/16 18:52:11;;;;;;;;;;;27.40;95.50;;;;;;1781899;79;20169;-91
2021/05/16 18:54:41;;;;;;;;;;;27.40;95.50;;;;;;1799809;77;20311;-91
2021/05/16 18:57:11;;;;;;;;;;;27.40;95.60;;;;;;1794452;77;20203;-91
2021/05/16 18:59:40;;;;;;;;;;;27.40;95.60;;;;;;1778427;79;20208;-92
2021/05/16 19:02:10;;;;;;;;;;;27.40;95.70;;;;;;1774730;78;20269;-92
2021/05/16 19:04:40;;;;;;;;;;;27.40;95.80;;;;;;1789933;79;20217;-91
2021/05/16 19:07:16;;;;;;;;;;;27.40;95.90;;;;;;1801036;78;20241;-91
2021/05/16 19:09:47;;;;;;;;;;;27.40;95.70;;;;;;1787086;79;20207;-90
2021/05/16 19:12:12;;;;;;;;;;;27.40;95.50;;;;;;1785112;79;20237;-92
2021/05/16 19:14:42;;;;;;;;;;;27.50;95.80;;;;;;1790833;78;20414;-92
2021/05/16 19:17:22;;;;;;;;;;;27.40;95.70;;;;;;1786660;78;20225;-92
2021/05/16 19:19:53;;;;;;;;;;;27.40;95.80;;;;;;1787041;79;20180;-90
2021/05/16 19:22:23;;;;;;;;;;;27.40;96.00;;;;;;1803413;78;20841;-91
2021/05/16 19:24:52;;;;;;;;;;;27.40;96.00;;;;;;1787902;78;20248;-92
2021/05/16 19:27:22;;;;;;;;;;;27.30;96.10;;;;;;1795811;78;20445;-93
2021/05/16 19:29:52;;;;;;;;;;;27.40;96.20;;;;;;1790672;78;20208;-91
2021/05/16 19:32:21;;;;;;;;;;;27.30;96.30;;;;;;1780843;79;20498;-91
2021/05/16 19:34:52;;;;;;;;;;;27.30;96.30;;;;;;1785912;79;20165;-91
2021/05/16 19:37:22;;;;;;;;;;;27.20;96.20;;;;;;1772727;79;20244;-91
2021/05/16 19:39:52;;;;;;;;;;;27.30;96.00;;;;;;1778456;79;20226;-91
2021/05/16 19:42:29;;;;;;;;;;;27.30;96.00;;;;;;1777002;79;20504;-92
2021/05/16 19:44:53;;;;;;;;;;;27.30;96.20;;;;;;1789725;78;20211;-92
2021/05/16 19:47:24;;;;;;;;;;;27.40;96.20;;;;;;1788637;78;20184;-91
2021/05/16 19:49:54;;;;;;;;;;;27.40;96.30;;;;;;1787341;78;20548;-92
2021/05/16 19:52:29;;;;;;;;;;;27.40;96.30;;;;;;1792879;78;20457;-91
2021/05/16 19:55:02;;;;;;;;;;;27.40;96.20;;;;;;1795037;78;20200;-92
2021/05/16 19:57:32;;;;;;;;;;;27.30;96.20;;;;;;1791741;78;20605;-91
2021/05/16 20:00:03;;;;;;;;;;;27.30;96.30;;;;;;1787238;79;20196;-92
2021/05/16 20:02:33;;;;;;;;;;;27.30;96.20;;;;;;1786081;79;20222;-93
2021/05/16 20:05:03;;;;;;;;;;;27.30;96.10;;;;;;1787042;79;20237;-92
2021/05/16 20:07:36;;;;;;;;;;;27.40;96.00;;;;;;1791067;78;20239;-93
2021/05/16 20:10:07;;;;;;;;;;;27.40;95.90;;;;;;1793450;78;20231;-92
2021/05/16 20:12:37;;;;;;;;;;;27.40;96.10;;;;;;1801975;78;20175;-92
2021/05/16 20:15:11;;;;;;;;;;;27.40;95.80;;;;;;1785462;78;20188;-93
2021/05/16 20:17:41;;;;;;;;;;;27.40;95.70;;;;;;1797794;78;20396;-93
2021/05/16 20:20:12;;;;;;;;;;;27.50;95.90;;;;;;1781761;79;20206;-92
2021/05/16 20:22:45;;;;;;;;;;;27.50;96.00;;;;;;1786005;78;20196;-91
2021/05/16 20:25:21;;;;;;;;;;;27.50;96.00;;;;;;1799828;78;20219;-91
2021/05/16 20:27:52;;;;;;;;;;;27.40;96.10;;;;;;1801575;78;21055;-91
2021/05/16 20:30:26;;;;;;;;;;;27.40;96.20;;;;;;1780978;79;20224;-91
2021/05/16 20:32:56;;;;;;;;;;;27.40;96.50;;;;;;1801614;78;20219;-91
2021/05/16 20:35:27;;;;;;;;;;;27.30;96.40;;;;;;1783309;79;20192;-92
2021/05/16 20:37:59;;;;;;;;;;;27.30;96.30;;;;;;1789836;79;20161;-91
2021/05/16 20:40:30;;;;;;;;;;;27.30;96.40;;;;;;1726534;81;20128;-91
2021/05/16 20:43:00;;;;;;;;;;;27.30;96.50;;;;;;1740642;80;20306;-92
2021/05/16 20:45:31;;;;;;;;;;;27.40;96.50;;;;;;1786159;79;20173;-91
2021/05/16 20:48:03;;;;;;;;;;;27.40;96.40;;;;;;1776464;80;20212;-91
2021/05/16 20:50:36;;;;;;;;;;;27.40;96.80;;;;;;1783341;79;20157;-93
2021/05/16 20:53:05;;;;;;;;;;;27.40;96.50;;;;;;1773868;79;20202;-91
2021/05/16 20:55:43;;;;;;;;;;;27.40;96.50;;;;;;1793949;78;20612;-92
2021/05/16 20:58:17;;;;;;;;;;;27.30;96.60;;;;;;1789372;78;20261;-91
2021/05/16 21:00:49;;;;;;;;;;;27.30;96.70;;;;;;1798578;78;20215;-91
2021/05/16 21:03:19;;;;;;;;;;;27.30;96.70;;;;;;1797073;78;20192;-90
2021/05/16 21:05:50;;;;;;;;;;;27.20;96.70;;;;;;1800366;78;20278;-94
2021/05/16 21:08:23;;;;;;;;;;;27.20;96.70;;;;;;1792698;77;20200;-91
2021/05/16 21:10:56;;;;;;;;;;;27.20;96.80;;;;;;1774196;79;20212;-90
2021/05/16 21:13:26;;;;;;;;;;;27.20;96.90;;;;;;1777141;78;20243;-91
2021/05/16 21:15:56;;;;;;;;;;;27.30;96.90;;;;;;1791179;78;20306;-92
2021/05/16 21:18:26;;;;;;;;;;;27.20;96.90;;;;;;1776135;78;20242;-91
2021/05/16 21:20:56;;;;;;;;;;;27.30;96.70;;;;;;1790986;78;20224;-90
2021/05/16 21:23:26;;;;;;;;;;;27.20;96.70;;;;;;1778524;79;20220;-92
2021/05/16 21:25:56;;;;;;;;;;;27.20;97.00;;;;;;1778400;79;20240;-91
2021/05/16 21:28:26;;;;;;;;;;;27.30;96.60;;;;;;1780694;78;20283;-91
2021/05/16 21:30:56;;;;;;;;;;;27.30;96.60;;;;;;1785577;78;20189;-92
2021/05/16 21:33:36;;;;;;;;;;;27.30;96.50;;;;;;1788034;78;20272;-91
2021/05/16 21:36:07;;;;;;;;;;;27.40;96.40;;;;;;1796055;77;20224;-91
2021/05/16 21:38:37;;;;;;;;;;;27.40;96.40;;;;;;1794103;78;20141;-90
2021/05/16 21:41:10;;;;;;;;;;;27.40;96.50;;;;;;1771200;79;20457;-92
2021/05/16 21:43:42;;;;;;;;;;;27.30;96.60;;;;;;1765404;80;20205;-91
2021/05/16 21:46:12;;;;;;;;;;;27.30;96.70;;;;;;1786358;79;20168;-91
2021/05/16 21:48:42;;;;;;;;;;;27.30;96.70;;;;;;1785655;78;20470;-92
2021/05/16 21:51:16;;;;;;;;;;;27.20;96.70;;;;;;1774386;79;20144;-91
2021/05/16 21:53:46;;;;;;;;;;;27.30;97.00;;;;;;1782241;79;20189;-92
2021/05/16 21:56:16;;;;;;;;;;;27.20;97.00;;;;;;1786073;78;20244;-91
2021/05/16 21:58:46;;;;;;;;;;;27.20;97.10;;;;;;1785297;79;20451;-90
2021/05/16 22:04:14;;;;;;;;;;;27.20;97.30;;;;;;1787158;79;20202;-91
2021/05/16 22:06:44;;;;;;;;;;;27.10;97.10;;;;;;1780792;79;20231;-91
2021/05/16 22:09:16;;;;;;;;;;;27.10;97.10;;;;;;1774202;79;20186;-91
2021/05/16 22:11:47;;;;;;;;;;;27.10;97.10;;;;;;1760403;79;20287;-91
2021/05/16 22:14:16;;;;;;;;;;;27.10;97.20;;;;;;1782322;79;20472;-91
2021/05/16 22:16:46;;;;;;;;;;;27.10;97.20;;;;;;1794297;78;20292;-91
2021/05/16 22:19:16;;;;;;;;;;;27.10;97.50;;;;;;1782152;79;20200;-90
2021/05/16 22:21:46;;;;;;;;;;;27.00;97.50;;;;;;1792645;78;20487;-90
2021/05/16 22:24:16;;;;;;;;;;;27.00;97.60;;;;;;1790207;78;20247;-90
2021/05/16 22:26:46;;;;;;;;;;;27.00;97.50;;;;;;1789565;78;20219;-91
2021/05/16 22:29:16;;;;;;;;;;;27.10;97.50;;;;;;1781020;79;20525;-90
2021/05/16 22:31:45;;;;;;;;;;;27.10;97.60;;;;;;1784225;78;20156;-91
2021/05/16 22:34:17;;;;;;;;;;;27.10;97.60;;;;;;1791438;78;20212;-90
2021/05/16 22:36:47;;;;;;;;;;;27.00;97.60;;;;;;1789031;78;20172;-91
2021/05/16 22:39:17;;;;;;;;;;;27.00;97.60;;;;;;1815210;77;20644;-91
2021/05/16 22:41:47;;;;;;;;;;;26.90;97.70;;;;;;1803795;78;20223;-90
2021/05/16 22:44:20;;;;;;;;;;;26.90;97.60;;;;;;1775903;79;20215;-90
2021/05/16 22:46:48;;;;;;;;;;;26.90;97.60;;;;;;1785176;78;20259;-91
2021/05/16 22:49:18;;;;;;;;;;;26.90;97.60;;;;;;1776101;79;20421;-91
2021/05/16 22:51:48;;;;;;;;;;;26.90;97.80;;;;;;1786602;79;20236;-91
2021/05/16 22:54:18;;;;;;;;;;;26.90;97.60;;;;;;1794493;78;20239;-91
2021/05/16 22:56:47;;;;;;;;;;;27.00;97.50;;;;;;1789206;78;20489;-92
2021/05/16 22:59:17;;;;;;;;;;;27.00;97.50;;;;;;1780542;79;20469;-90
2021/05/16 23:01:47;;;;;;;;;;;27.00;97.30;;;;;;1760392;80;20268;-92
2021/05/16 23:04:18;;;;;;;;;;;27.10;96.90;;;;;;1746479;80;20228;-92
2021/05/16 23:06:48;;;;;;;;;;;27.20;96.80;;;;;;1734819;80;20210;-90
2021/05/16 23:09:18;;;;;;;;;;;27.20;96.60;;;;;;1731700;81;20215;-91
2021/05/16 23:11:50;;;;;;;;;;;27.30;95.70;;;;;;1785668;79;20199;-89
2021/05/16 23:14:20;;;;;;;;;;;27.30;96.00;;;;;;1769603;79;20163;-90
2021/05/16 23:16:51;;;;;;;;;;;27.40;96.70;;;;;;1745163;82;20163;-91
2021/05/16 23:19:21;;;;;;;;;;;27.40;96.30;;;;;;1780871;81;20153;-91
2021/05/16 23:21:51;;;;;;;;;;;27.40;96.90;;;;;;1779524;80;20176;-89
2021/05/16 23:24:21;;;;;;;;;;;27.40;97.20;;;;;;1789140;80;20435;-92
2021/05/16 23:26:51;;;;;;;;;;;27.40;97.10;;;;;;1785325;80;20121;-90
2021/05/16 23:29:22;;;;;;;;;;;27.40;97.10;;;;;;1786704;79;20214;-91
2021/05/16 23:31:52;;;;;;;;;;;27.40;96.40;;;;;;1778689;79;20169;-90
2021/05/16 23:34:22;;;;;;;;;;;27.50;95.60;;;;;;1778272;80;20573;-91
2021/05/16 23:36:52;;;;;;;;;;;27.40;95.70;;;;;;1785881;80;20215;-91
2021/05/16 23:39:22;;;;;;;;;;;27.60;95.80;;;;;;1764608;80;20124;-91
2021/05/16 23:41:53;;;;;;;;;;;27.60;95.40;;;;;;1780595;79;20180;-91
2021/05/16 23:44:23;;;;;;;;;;;27.60;95.20;;;;;;1790675;80;20168;-91
2021/05/16 23:46:54;;;;;;;;;;;27.60;95.30;;;;;;1798640;79;20187;-91
2021/05/16 23:49:25;;;;;;;;;;;27.70;95.20;;;;;;1783521;79;20503;-90
2021/05/16 23:51:55;;;;;;;;;;;27.70;95.20;;;;;;1786252;80;20126;-90
2021/05/16 23:54:24;;;;;;;;;;;27.70;95.40;;;;;;1782153;80;20189;-90
2021/05/16 23:56:54;;;;;;;;;;;27.70;96.30;;;;;;1785418;79;20213;-90
2021/05/16 23:59:25;;;;;;;;;;;27.70;96.20;;;;;;1785205;79;20200;-92
